SUCCESS DAM (SCC)

Elevation: 692' · TULE R basin · Operator: US Army Corps of Engineers

Provisional data, subject to change.
Query executed Wednesday at 21:45:04   clock

Select a sensor type for a plot of data.
Note: Reservoir Flows are daily averages.

Earlier

Date RES ELE    STORAGE    RES CHG    TOC STO    ABV TOC    OUTFLOW    INFLOW    FNF    PPT INC    PPTINC4    TEMP MN    TEMP MX    WINDLEN    EVP PAN   
 FEET   AF   AF   AF   AF   CFS   CFS   CFS   INCHES   INCHES   DEG F   DEG F   MILES   INCHES  
06/28/2016 638.27 53136 -83 82300 -29164 34 8 8 0.00 0.00 24 41 55 0.30
06/29/2016 638.22 53053 -83 82300 -29247 35 10 7 e 0.00 0.00 23 42 63 0.34
06/30/2016 638.16 52954 -99 82300 -29346 36 4 7 e 0.00 0.00 20 41 56 0.33
07/01/2016 638.10 52854 -100 82300 -29446 37 5 6 e 0.00 0.00 21 42 65 0.34
07/02/2016 638.05 52772 -82 82300 -29528 40 16 4 e 0.00 0.00 21 40 55 0.32
07/03/2016 637.99 52673 -99 82300 -29627 28 -4 2 e 0.00 0.00 20 38 60 0.33
07/04/2016 637.94 52591 -82 82300 -29709 21 -4 -4 e 0.00 0.00 18 38 58 0.32
07/05/2016 637.90 52525 -66 82300 -29775 16 -0 0 0.00 0.00 18 37 67 0.32
07/06/2016 637.86 52459 -66 82300 -29841 16 0 0 0.00 0.00 17 37 63 0.32
07/07/2016 637.68 52164 -295 82300 -30136 131 -2 -2 0.00 0.00 17 36 53 0.30
07/08/2016 637.28 51515 -649 82300 -30785 318 7 7 0.02 0.00 16 36 61 0.31
07/09/2016 636.71 50602 -913 82300 -31698 449 4 4 0.00 0.00 18 35 64 0.29
07/10/2016 635.97 49438 -1164 82300 -32862 577 6 6 0.00 0.00 17 32 66 0.30
07/11/2016 635.07 48055 -1383 82300 -34245 688 6 6 0.00 0.00 14 34 62 0.30
07/12/2016 634.13 46647 -1408 82300 -35653 711 16 16 0.00 0.00 17 36 65 0.32
07/13/2016 633.17 45247 -1400 82300 -37053 710 19 19 0.01 0.00 16 37 70 0.32
07/14/2016 632.18 43841 -1406 82300 -38459 709 15 15 0.02 0.00 23 40 64 0.34
07/15/2016 631.11 42363 -1478 82300 -39937 756 26 26 0.00 0.00 19 40 62 0.33
07/16/2016 629.99 40860 -1503 82300 -41440 768 25 25 0.00 0.00 21 39 65 0.33
07/17/2016 628.85 39375 -1485 82300 -42925 760 25 25 0.00 0.00 18 38 67 0.32
07/18/2016 627.69 37908 -1467 82300 -44392 751 24 24 0.00 0.00 16 36 64 0.31
07/19/2016 626.49 36436 -1472 82300 -45864 757 27 27 0.00 0.00 17 36 59 0.31
07/20/2016 625.26 34972 -1464 82300 -47328 755 29 29 0.00 0.00 17 37 66 0.31
07/21/2016 623.98 33495 -1477 82300 -48805 753 20 20 0.01 0.00 18 38 61 0.31
07/22/2016 622.68 32041 -1454 82300 -50259 745 23 23 0.00 0.00 18 37 72 0.31
07/23/2016 621.36 30610 -1431 82300 -51690 737 26 26 0.00 0.00 17 37 68 0.31
07/24/2016 619.98 29162 -1448 82300 -53138 738 20 20 0.02 0.00 24 42 75 0.35
07/25/2016 618.51 27670 -1492 81559 -53889 759 17 17 0.00 0.00 20 41 67 0.33
07/26/2016 616.97 26162 -1508 80819 -54657 781 30 -- 0.00 0.00 21 41 60 0.32
07/27/2016 -- -- -- -- -- -- -- -- -- 0.00 -- -- -- --

Later | Latest

Warning! This data is preliminary and subject to revision.

Show SCC Map | Plot SCC Data | 1 Month SCC Data | Real-Time SCC Data | SCC Info